Time;durP1;ratioP1;P1;durP2;ratioP2;P2;SDS_P1;SDS_P2;PMS_P1;PMS_P2;Temp;Humidity;BMP_temperature;BMP_pressure;BME280_temperature;BME280_humidity;BME280_pressure;Samples;Min_cycle;Max_cycle;Signal;HPM_P1;HPM_P2
2023/12/29 15:19:55;;;;;;;37.10;21.60;;;;;;;4.77;94.87;99341.63;80238;1301;3013239;-73
2023/12/29 15:22:26;;;;;;;40.80;22.80;;;;;;;4.51;95.41;99340.73;79433;1301;3012125;-75
2023/12/29 15:24:57;;;;;;;31.70;17.60;;;;;;;4.48;96.03;99341.86;78156;1303;3051184;-75
2023/12/29 15:27:24;;;;;;;37.00;20.20;;;;;;;4.82;95.81;99349.61;79290;1304;3011537;-74
2023/12/29 15:29:53;;;;;;;37.50;21.60;;;;;;;5.04;93.80;99345.29;78781;1300;3013238;-74
2023/12/29 15:32:19;;;;;;;37.00;20.10;;;;;;;4.80;94.29;99347.60;79146;1298;3021265;-73
2023/12/29 15:34:47;;;;;;;34.60;19.10;;;;;;;4.70;94.54;99348.48;79402;1295;3011607;-74
2023/12/29 15:37:15;;;;;;;34.90;20.80;;;;;;;4.62;94.15;99343.42;78284;1301;3027694;-71
2023/12/29 15:39:41;;;;;;;40.70;22.20;;;;;;;4.33;95.71;99346.59;79905;1295;3013341;-74
2023/12/29 15:42:08;;;;;;;31.20;18.50;;;;;;;4.15;97.48;99339.10;80110;1293;3011573;-74
2023/12/29 15:44:37;;;;;;;32.50;17.80;;;;;;;4.46;97.15;99335.02;78636;1294;3068401;-75
2023/12/29 15:47:06;;;;;;;31.80;17.10;;;;;;;4.86;95.18;99337.46;79956;1290;3012983;-75
2023/12/29 15:49:33;;;;;;;42.60;19.80;;;;;;;4.84;93.78;99342.08;79949;1291;3011762;-75
2023/12/29 15:52:01;;;;;;;36.40;21.10;;;;;;;4.60;94.90;99345.44;78776;1291;3053114;-74
2023/12/29 15:54:28;;;;;;;36.60;21.40;;;;;;;4.59;95.04;99344.77;79868;1305;3019004;-76
2023/12/29 15:56:55;;;;;;;39.40;23.00;;;;;;;4.43;95.46;99345.38;79887;1295;3013031;-75
2023/12/29 15:59:23;;;;;;;32.20;18.80;;;;;;;4.32;96.34;99347.86;78736;1289;3070253;-75
2023/12/29 16:01:51;;;;;;;28.60;16.70;;;;;;;4.45;96.23;99347.52;80115;1291;3012628;-74
2023/12/29 16:04:18;;;;;;;32.40;18.10;;;;;;;4.84;94.78;99343.28;79843;1289;3011920;-75
2023/12/29 16:06:45;;;;;;;27.70;17.30;;;;;;;4.95;93.49;99344.05;78874;1291;3053377;-72
2023/12/29 16:09:12;;;;;;;31.60;20.20;;;;;;;4.66;93.13;99338.58;80300;1293;3012564;-75
2023/12/29 16:11:40;;;;;;;34.80;19.70;;;;;;;4.49;94.55;99340.46;80050;1292;3011583;-75
2023/12/29 16:14:08;;;;;;;31.40;18.90;;;;;;;4.34;94.84;99342.23;79498;1289;3069709;-75
2023/12/29 16:16:38;;;;;;;27.10;15.90;;;;;;;4.14;95.59;99338.11;80075;1292;3013464;-75
2023/12/29 16:19:07;;;;;;;34.80;19.80;;;;;;;4.95;95.31;99337.12;79441;1291;3011963;-76
2023/12/29 16:21:37;;;;;;;31.30;18.60;;;;;;;5.35;91.61;99339.16;79909;1289;3012986;-74
2023/12/29 16:24:07;;;;;;;30.20;16.90;;;;;;;4.95;91.48;99332.80;78667;1292;3049657;-76
2023/12/29 16:26:34;;;;;;;37.50;21.10;;;;;;;4.55;93.10;99322.70;80161;1295;3013136;-75
2023/12/29 16:29:00;;;;;;;41.60;24.00;;;;;;;4.29;95.09;99325.05;79875;1294;3011759;-75
2023/12/29 16:31:28;;;;;;;62.40;37.10;;;;;;;4.30;95.86;99327.10;78918;1290;3048675;-76
2023/12/29 16:33:55;;;;;;;36.10;18.50;;;;;;;4.11;96.58;99330.57;79935;1291;3018973;-74
2023/12/29 16:36:21;;;;;;;33.60;19.50;;;;;;;4.39;96.28;99334.56;80125;1294;3012962;-75
2023/12/29 16:38:51;;;;;;;31.80;17.10;;;;;;;4.75;94.10;99334.41;78684;1289;3026007;-74
2023/12/29 16:41:19;;;;;;;29.90;18.20;;;;;;;4.81;93.22;99337.84;79904;1293;3011865;-75
2023/12/29 16:43:48;;;;;;;35.40;20.10;;;;;;;4.66;93.09;99338.06;79316;1293;3013751;-76
2023/12/29 16:46:16;;;;;;;36.00;20.80;;;;;;;4.36;94.13;99330.88;79941;1293;3011881;-73
2023/12/29 16:48:42;;;;;;;35.10;20.40;;;;;;;4.06;95.78;99328.67;80098;1288;3013458;-73
2023/12/29 16:51:11;;;;;;;30.00;16.10;;;;;;;3.88;97.52;99324.46;78624;1294;3048165;-74
2023/12/29 16:53:38;;;;;;;29.60;17.40;;;;;;;4.30;96.96;99339.09;79876;1289;3013282;-76
2023/12/29 16:56:06;;;;;;;33.10;19.60;;;;;;;4.82;94.51;99338.48;79897;1289;3013331;-74
2023/12/29 16:58:34;;;;;;;34.10;20.70;;;;;;;4.83;93.09;99333.77;78650;1294;3054054;-73
2023/12/29 17:01:01;;;;;;;42.70;22.00;;;;;;;4.62;93.49;99333.73;79867;1294;3018548;-73
2023/12/29 17:03:29;;;;;;;35.90;21.30;;;;;;;4.40;94.64;99333.52;79972;1289;3013266;-73
2023/12/29 17:05:57;;;;;;;41.10;22.60;;;;;;;4.19;95.59;99335.51;78788;1289;3048128;-72
2023/12/29 17:08:24;;;;;;;30.00;17.90;;;;;;;4.18;95.77;99329.63;80002;1289;3013777;-75
2023/12/29 17:10:50;;;;;;;31.30;16.60;;;;;;;4.77;94.37;99330.88;81419;1291;3011357;-75
2023/12/29 17:13:18;;;;;;;33.40;17.60;;;;;;;4.93;91.44;99333.57;81015;1294;3025924;-75
2023/12/29 17:15:45;;;;;;;32.70;18.90;;;;;;;4.84;91.65;99334.25;80820;1294;3012563;-75
2023/12/29 17:18:12;;;;;;;36.10;19.50;;;;;;;4.59;92.74;99337.11;81464;1291;3011437;-75
2023/12/29 17:20:40;;;;;;;34.50;17.60;;;;;;;4.19;94.06;99334.95;79054;1294;3049974;-74
2023/12/29 17:23:07;;;;;;;39.30;21.40;;;;;;;4.21;94.34;99339.56;80997;1289;3011730;-74
2023/12/29 17:25:34;;;;;;;35.10;17.70;;;;;;;4.11;94.75;99339.59;79843;1292;3011782;-75
2023/12/29 17:28:09;;;;;;;40.00;22.60;;;;;;;4.42;95.00;99326.30;78784;1295;3051718;-73
2023/12/29 17:30:38;;;;;;;50.40;29.10;;;;;;;4.48;94.15;99322.11;79305;1291;3012895;-75
2023/12/29 17:33:05;;;;;;;39.70;22.50;;;;;;;4.50;93.83;99319.42;79994;1289;3013125;-75
2023/12/29 17:35:31;;;;;;;38.10;19.90;;;;;;;4.24;94.60;99318.50;79900;1294;3011601;-75
2023/12/29 17:37:59;;;;;;;39.10;22.10;;;;;;;4.01;96.05;99318.48;78752;1292;3026726;-75
2023/12/29 17:40:26;;;;;;;42.40;21.80;;;;;;;3.97;96.44;99325.17;79940;1294;3013377;-75
2023/12/29 17:42:52;;;;;;;40.00;20.30;;;;;;;3.68;97.61;99326.20;79911;1294;3013186;-75
2023/12/29 17:45:20;;;;;;;38.80;21.30;;;;;;;4.32;97.48;99334.83;78647;1294;3025255;-76
2023/12/29 17:47:47;;;;;;;40.50;22.50;;;;;;;4.41;95.58;99337.48;79917;1294;3012820;-75
2023/12/29 17:50:15;;;;;;;45.10;24.00;;;;;;;4.59;94.61;99339.38;79897;1288;3011856;-76
2023/12/29 17:52:43;;;;;;;49.40;23.60;;;;;;;4.39;94.34;99342.02;78702;1294;3049983;-77
2023/12/29 17:55:11;;;;;;;47.10;24.40;;;;;;;4.11;95.50;99338.02;79817;1291;3018755;-76
2023/12/29 17:57:39;;;;;;;47.40;24.80;;;;;;;3.93;96.71;99337.98;79914;1294;3011661;-75
2023/12/29 18:00:08;;;;;;;31.00;17.80;;;;;;;3.83;97.57;99336.77;78775;1294;3054066;-75
2023/12/29 18:02:35;;;;;;;40.80;19.60;;;;;;;4.10;97.17;99339.45;80031;1293;3011848;-74
2023/12/29 18:05:02;;;;;;;36.60;20.80;;;;;;;4.42;95.86;99336.73;79924;1292;3011553;-74
2023/12/29 18:07:30;;;;;;;41.40;22.60;;;;;;;4.45;95.01;99335.39;78725;1295;3049876;-74
2023/12/29 18:09:57;;;;;;;42.20;22.30;;;;;;;4.40;94.51;99337.99;79856;1290;3013526;-75
2023/12/29 18:12:24;;;;;;;45.00;23.40;;;;;;;4.08;95.29;99338.84;79821;1294;3011538;-75
2023/12/29 18:14:53;;;;;;;41.80;22.90;;;;;;;3.84;96.74;99338.13;78872;1294;3025872;-74
2023/12/29 18:17:25;;;;;;;40.20;21.10;;;;;;;3.64;98.17;99343.50;80003;1289;3013478;-74
2023/12/29 18:19:53;;;;;;;33.30;18.70;;;;;;;3.99;97.83;99331.00;78601;1294;3049974;-75
2023/12/29 18:22:20;;;;;;;43.60;20.90;;;;;;;4.19;96.37;99333.75;79926;1289;3018586;-75
2023/12/29 18:24:47;;;;;;;43.80;22.60;;;;;;;4.03;97.03;99332.08;80377;1291;3012999;-76
2023/12/29 18:27:17;;;;;;;35.90;19.40;;;;;;;3.82;97.10;99333.31;78914;1294;3025001;-76
2023/12/29 18:29:45;;;;;;;38.00;18.80;;;;;;;3.79;96.98;99332.23;80141;1292;3011694;-78
2023/12/29 18:32:14;;;;;;;37.50;18.00;;;;;;;3.52;97.76;99340.27;78738;1294;3027245;-75
2023/12/29 18:34:41;;;;;;;36.30;18.30;;;;;;;3.39;99.21;99334.45;80127;1291;3011543;-76
2023/12/29 18:37:09;;;;;;;35.60;18.10;;;;;;;3.78;99.02;99333.83;80030;1291;3013333;-79
2023/12/29 18:39:38;;;;;;;37.60;19.50;;;;;;;4.07;97.11;99336.45;78628;1291;3048754;-76
2023/12/29 18:42:05;;;;;;;32.10;18.00;;;;;;;3.86;97.19;99334.25;79945;1289;3013020;-76
2023/12/29 18:44:57;;;;;;;35.80;17.40;;;;;;;3.81;97.23;99334.75;79865;1294;3011613;-75
2023/12/29 18:47:25;;;;;;;36.90;20.70;;;;;;;3.78;96.97;99330.55;78639;1294;3053709;-76
2023/12/29 18:49:51;;;;;;;45.10;24.70;;;;;;;3.58;97.00;99328.78;79955;1293;3015987;-75
2023/12/29 18:52:20;;;;;;;35.40;18.20;;;;;;;3.42;98.55;99334.36;79927;1289;3013212;-77
2023/12/29 18:54:52;;;;;;;28.00;14.90;;;;;;;4.28;97.53;99335.84;78826;1289;3048305;-76
2023/12/29 18:57:19;;;;;;;30.10;15.90;;;;;;;4.72;93.43;99335.55;79964;1290;3013025;-76
2023/12/29 18:59:47;;;;;;;29.40;15.80;;;;;;;4.50;92.77;99339.03;78960;1291;3048875;-77
2023/12/29 19:02:16;;;;;;;29.50;15.60;;;;;;;4.13;93.12;99348.73;80053;1294;3018393;-78
2023/12/29 19:04:44;;;;;;;34.50;16.30;;;;;;;3.68;95.05;99333.11;80138;1289;3011825;-76
2023/12/29 19:07:17;;;;;;;37.20;18.90;;;;;;;3.61;96.29;99326.45;78555;1294;3050904;-78
2023/12/29 19:09:45;;;;;;;31.90;15.50;;;;;;;3.65;97.17;99320.23;79938;1289;3011917;-77
2023/12/29 19:12:14;;;;;;;27.50;14.60;;;;;;;3.90;96.27;99330.64;78645;1294;3048217;-78
2023/12/29 19:14:41;;;;;;;35.10;18.70;;;;;;;4.08;94.82;99329.29;80022;1291;3011727;-75
2023/12/29 19:17:09;;;;;;;34.00;17.70;;;;;;;3.85;95.23;99329.25;80010;1293;3013453;-76
2023/12/29 19:19:37;;;;;;;28.60;15.90;;;;;;;3.62;96.39;99330.20;78622;1294;3053927;-76
2023/12/29 19:22:04;;;;;;;32.90;15.80;;;;;;;3.52;96.93;99333.34;79856;1289;3012893;-76
2023/12/29 19:24:35;;;;;;;25.00;12.90;;;;;;;3.26;97.91;99338.50;79863;1289;3013372;-77
2023/12/29 19:27:05;;;;;;;22.40;12.10;;;;;;;3.82;97.95;99343.02;78903;1290;3048870;-77
2023/12/29 19:29:32;;;;;;;19.90;10.40;;;;;;;4.16;94.46;99352.42;80060;1294;3013809;-77
2023/12/29 19:32:42;;;;;;;26.60;13.40;;;;;;;4.13;92.87;99342.48;78595;1298;3051460;-77
2023/12/29 19:35:08;;;;;;;22.90;12.50;;;;;;;3.92;93.39;99336.62;79771;1298;3012953;-75
2023/12/29 19:37:37;;;;;;;32.60;15.20;;;;;;;3.97;92.52;99342.14;79757;1297;3011740;-77
2023/12/29 19:40:07;;;;;;;17.20;10.30;;;;;;;3.29;94.89;99344.13;78695;1298;3056092;-76
2023/12/29 19:42:36;;;;;;;21.70;12.20;;;;;;;3.17;96.61;99342.79;79724;1297;3013841;-78
2023/12/29 19:45:03;;;;;;;25.20;12.50;;;;;;;3.75;95.67;99337.73;79697;1298;3011740;-76
2023/12/29 19:47:32;;;;;;;20.40;11.10;;;;;;;3.91;94.40;99330.92;78514;1298;3053412;-75
2023/12/29 19:49:59;;;;;;;25.10;13.10;;;;;;;4.05;92.27;99326.45;79817;1298;3015288;-78
2023/12/29 19:52:25;;;;;;;27.40;14.50;;;;;;;3.79;93.24;99331.86;79801;1293;3013199;-77
2023/12/29 19:54:55;;;;;;;24.60;12.50;;;;;;;3.52;93.87;99338.51;78512;1295;3055905;-77
2023/12/29 19:57:23;;;;;;;21.60;12.00;;;;;;;3.25;95.30;99335.94;79731;1292;3011939;-76
2023/12/29 19:59:56;;;;;;;19.10;10.60;;;;;;;3.61;95.81;99341.64;79336;1295;3011774;-77
2023/12/29 20:02:24;;;;;;;17.80;10.10;;;;;;;4.11;93.05;99340.48;79651;1298;3011531;-77
2023/12/29 20:04:52;;;;;;;22.40;12.30;;;;;;;3.95;91.89;99342.94;78838;1298;3052577;-78
2023/12/29 20:07:20;;;;;;;22.20;11.00;;;;;;;3.39;93.92;99339.98;80062;1297;3013791;-76
2023/12/29 20:09:48;;;;;;;25.40;13.40;;;;;;;3.29;94.97;99342.38;80198;1297;3012113;-78
2023/12/29 20:12:18;;;;;;;19.70;11.40;;;;;;;2.87;96.56;99339.05;78615;1295;3055985;-77
2023/12/29 20:14:46;;;;;;;20.40;11.50;;;;;;;3.19;97.34;99338.55;79918;1292;3011850;-77
2023/12/29 20:17:15;;;;;;;21.70;11.70;;;;;;;3.73;95.50;99336.41;79316;1291;3011719;-76
2023/12/29 20:19:41;;;;;;;22.90;12.50;;;;;;;3.65;94.11;99339.97;79947;1294;3013178;-77
2023/12/29 20:22:08;;;;;;;26.80;13.50;;;;;;;3.59;94.00;99345.91;79941;1295;3011585;-76
2023/12/29 20:25:16;;;;;;;20.30;10.30;;;;;;;3.36;94.46;99350.63;78364;1297;3068826;-77
2023/12/29 20:27:45;;;;;;;24.30;11.50;;;;;;;3.26;94.92;99348.70;79901;1294;3013897;-76
2023/12/29 20:30:12;;;;;;;15.80;8.80;;;;;;;3.45;95.24;99355.53;79838;1293;3013455;-76
2023/12/29 20:32:41;;;;;;;21.80;10.50;;;;;;;3.74;93.43;99349.03;78512;1297;3053121;-78
2023/12/29 20:35:08;;;;;;;18.30;10.90;;;;;;;3.78;92.53;99345.95;79826;1297;3013219;-76
2023/12/29 20:37:35;;;;;;;19.80;10.80;;;;;;;3.50;93.18;99351.23;79787;1294;3012142;-76
2023/12/29 20:40:04;;;;;;;21.40;11.40;;;;;;;3.37;94.09;99350.77;78471;1296;3067490;-78
2023/12/29 20:42:31;;;;;;;17.20;10.00;;;;;;;3.28;94.04;99345.52;79705;1297;3011552;-77
2023/12/29 20:44:59;;;;;;;20.90;10.20;;;;;;;3.32;94.71;99345.92;79840;1294;3011659;-77
2023/12/29 20:47:27;;;;;;;20.20;10.60;;;;;;;3.92;92.74;99339.91;78529;1297;3051839;-78
2023/12/29 20:49:54;;;;;;;15.30;7.60;;;;;;;3.98;91.29;99333.82;79639;1297;3018475;-78
2023/12/29 20:52:21;;;;;;;17.40;9.00;;;;;;;3.93;90.48;99340.75;79697;1297;3012983;-75
2023/12/29 22:23:41;;;;;;;14.30;9.00;;;;;;;2.45;95.62;99328.04;80637;1298;3012869;-76
2023/12/29 22:26:11;;;;;;;15.20;10.00;;;;;;;2.38;95.86;99327.18;79271;1303;3011553;-78
2023/12/29 22:28:40;;;;;;;14.50;7.80;;;;;;;2.09;97.28;99334.59;78190;1301;3050270;-79
2023/12/29 22:31:07;;;;;;;14.70;8.50;;;;;;;2.71;96.61;99329.86;79322;1304;3013253;-76
2023/12/29 22:33:35;;;;;;;15.80;9.10;;;;;;;2.73;95.74;99326.33;79329;1300;3011646;-79
2023/12/29 22:36:09;;;;;;;13.30;7.00;;;;;;;2.88;94.35;99333.65;78035;1301;3048698;-76
2023/12/29 22:38:36;;;;;;;13.20;7.70;;;;;;;2.51;94.70;99335.46;79813;1298;3011501;-74
2023/12/29 22:41:07;;;;;;;14.20;9.10;;;;;;;2.12;95.16;99330.03;78257;1302;3048736;-75
2023/12/29 22:43:34;;;;;;;13.20;7.70;;;;;;;2.03;96.24;99326.27;79670;1298;3013070;-74
2023/12/29 22:46:04;;;;;;;13.70;7.60;;;;;;;2.17;97.01;99321.07;78959;1298;3011806;-73
2023/12/29 22:48:30;;;;;;;16.00;9.50;;;;;;;2.58;95.90;99319.87;79560;1301;3016127;-75
2023/12/29 22:50:58;;;;;;;13.00;7.60;;;;;;;2.36;95.50;99326.23;79484;1298;3011522;-74
2023/12/29 22:53:26;;;;;;;14.70;8.30;;;;;;;2.38;95.99;99317.19;78216;1299;3051598;-75
2023/12/29 22:55:54;;;;;;;16.30;9.30;;;;;;;2.37;95.83;99318.43;79530;1296;3012775;-74
2023/12/29 22:58:21;;;;;;;16.30;8.40;;;;;;;2.28;95.54;99326.96;79546;1298;3011666;-74
2023/12/29 23:00:50;;;;;;;11.60;7.60;;;;;;;2.26;96.36;99311.46;78253;1301;3049230;-78
2023/12/29 23:03:18;;;;;;;13.90;9.10;;;;;;;2.71;95.41;99317.74;79425;1298;3013258;-76
2023/12/29 23:05:44;;;;;;;14.70;8.00;;;;;;;2.35;95.44;99318.98;79516;1301;3011701;-73
2023/12/29 23:08:12;;;;;;;12.40;7.40;;;;;;;2.39;95.50;99311.80;78233;1298;3050867;-75
2023/12/29 23:10:39;;;;;;;13.00;8.00;;;;;;;2.34;94.76;99305.72;79508;1297;3013472;-75
2023/12/29 23:13:06;;;;;;;11.70;6.90;;;;;;;2.18;95.27;99300.83;79410;1298;3011575;-76
2023/12/29 23:15:34;;;;;;;12.50;7.50;;;;;;;2.36;95.63;99297.52;78179;1299;3026912;-75
2023/12/29 23:18:03;;;;;;;11.40;7.30;;;;;;;2.78;93.67;99302.30;79368;1300;3013311;-72
2023/12/29 23:20:32;;;;;;;14.90;8.70;;;;;;;2.92;92.02;99299.10;78843;1295;3011398;-74
2023/12/29 23:23:01;;;;;;;9.40;6.10;;;;;;;2.53;93.05;99302.55;79536;1299;3011516;-74
2023/12/29 23:25:28;;;;;;;14.00;8.00;;;;;;;2.20;94.00;99301.45;79529;1298;3012827;-75
2023/12/29 23:27:56;;;;;;;11.40;6.90;;;;;;;2.10;94.92;99302.24;78493;1301;3050006;-73
2023/12/29 23:30:24;;;;;;;12.70;7.50;;;;;;;2.52;95.27;99307.60;79550;1300;3012855;-72
2023/12/29 23:32:51;;;;;;;12.20;7.40;;;;;;;2.88;92.59;99310.63;79424;1297;3011620;-76
2023/12/29 23:35:21;;;;;;;16.80;8.60;;;;;;;2.59;92.42;99311.02;78393;1300;3053619;-72
2023/12/29 23:37:49;;;;;;;16.00;9.10;;;;;;;2.50;93.14;99313.02;79470;1298;3013253;-73
2023/12/29 23:40:20;;;;;;;10.20;7.10;;;;;;;2.22;94.02;99318.31;78998;1297;3011713;-73
2023/12/29 23:42:46;;;;;;;11.80;7.60;;;;;;;2.14;94.70;99316.65;79464;1298;3013259;-74
2023/12/29 23:45:13;;;;;;;15.00;9.30;;;;;;;2.79;93.23;99320.27;79418;1297;3011502;-74
2023/12/29 23:47:43;;;;;;;11.70;7.40;;;;;;;2.90;91.33;99308.48;78207;1301;3049698;-69
2023/12/29 23:50:10;;;;;;;12.30;6.80;;;;;;;2.57;91.29;99307.60;79397;1299;3013135;-74
2023/12/29 23:52:37;;;;;;;17.00;9.20;;;;;;;2.39;92.56;99312.11;79519;1297;3011978;-75
2023/12/29 23:55:08;;;;;;;10.50;6.20;;;;;;;2.00;93.93;99311.34;78236;1300;3051361;-72
2023/12/29 23:57:36;;;;;;;14.00;8.50;;;;;;;2.37;94.33;99312.88;79484;1298;3013654;-73
